Time;durP1;ratioP1;P1;durP2;ratioP2;P2;SDS_P1;SDS_P2;PMS_P1;PMS_P2;Temp;Humidity;BMP_temperature;BMP_pressure;BME280_temperature;BME280_humidity;BME280_pressure;Samples;Min_cycle;Max_cycle;Signal;HPM_P1;HPM_P2
2022/01/27 00:01:59;;;;;;;32.40;17.25;;;1.30;99.90;;;;;;5054074;28;20729;-68
2022/01/27 00:04:34;;;;;;;40.47;19.80;;;1.20;99.90;;;;;;5053880;28;20222;-67
2022/01/27 00:07:03;;;;;;;38.25;17.45;;;1.30;99.90;;;;;;5054893;28;20235;-68
2022/01/27 00:09:44;;;;;;;33.97;17.75;;;1.40;99.90;;;;;;5054209;28;20676;-68
2022/01/27 00:12:11;;;;;;;39.75;17.90;;;1.60;99.90;;;;;;5054062;28;20204;-67
2022/01/27 00:14:45;;;;;;;37.75;16.67;;;1.70;99.90;;;;;;5054108;28;20280;-68
2022/01/27 00:17:14;;;;;;;40.95;19.15;;;1.70;99.90;;;;;;5054022;28;20264;-69
2022/01/27 00:19:41;;;;;;;38.63;18.05;;;1.70;99.90;;;;;;5054143;28;20262;-67
2022/01/27 00:22:09;;;;;;;41.85;19.17;;;1.70;99.90;;;;;;5053765;28;20199;-67
2022/01/27 00:24:36;;;;;;;36.17;18.20;;;1.70;99.90;;;;;;5053329;28;20229;-68
2022/01/27 00:27:04;;;;;;;42.08;17.80;;;1.80;99.90;;;;;;5053689;28;20374;-67
2022/01/27 00:29:30;;;;;;;38.75;17.20;;;1.80;99.90;;;;;;5053563;28;20209;-68
2022/01/27 00:31:57;;;;;;;33.05;17.08;;;1.90;99.90;;;;;;5053739;28;20294;-67
2022/01/27 00:34:24;;;;;;;37.65;18.98;;;1.80;99.90;;;;;;5053356;28;20227;-68
2022/01/27 00:36:51;;;;;;;40.50;18.20;;;1.60;99.90;;;;;;5053920;28;20213;-68
2022/01/27 00:39:19;;;;;;;39.05;18.75;;;1.70;99.90;;;;;;5053600;28;20583;-68
2022/01/27 00:41:46;;;;;;;38.45;18.85;;;1.60;99.90;;;;;;5056324;28;20203;-67
2022/01/27 00:44:14;;;;;;;40.92;19.67;;;1.60;99.90;;;;;;5052842;28;20265;-68
2022/01/27 00:46:41;;;;;;;45.20;20.52;;;1.50;99.90;;;;;;5053858;28;20231;-68
2022/01/27 00:49:08;;;;;;;45.85;19.75;;;1.50;99.90;;;;;;5053955;28;20253;-68
2022/01/27 00:51:38;;;;;;;43.60;20.40;;;1.40;99.90;;;;;;5053041;28;20294;-68
2022/01/27 00:54:08;;;;;;;42.88;20.02;;;1.30;99.90;;;;;;5053037;28;20280;-68
2022/01/27 00:56:45;;;;;;;43.50;20.50;;;1.20;99.90;;;;;;5053562;28;20272;-68
2022/01/27 00:59:27;;;;;;;39.05;18.25;;;1.40;99.90;;;;;;5053403;28;20592;-67
2022/01/27 01:02:02;;;;;;;43.63;18.25;;;1.40;99.90;;;;;;5053248;28;20203;-67
2022/01/27 01:04:33;;;;;;;35.33;18.30;;;1.40;99.90;;;;;;5053398;28;20281;-67
2022/01/27 01:07:01;;;;;;;43.40;18.90;;;1.50;99.90;;;;;;5053065;28;20273;-67
2022/01/27 01:15:16;;;;;;;36.92;17.90;;;1.90;99.90;;;;;;5010858;28;20220;-68
2022/01/27 01:17:55;;;;;;;38.47;18.88;;;1.90;99.90;;;;;;5010811;28;20303;-67
2022/01/27 01:20:53;;;;;;;47.63;19.83;;;1.80;99.90;;;;;;5033597;28;20334;-68
2022/01/27 01:31:45;;;;;;;45.15;20.83;;;1.60;99.90;;;;;;5053207;28;20333;-67
2022/01/27 01:34:17;;;;;;;45.92;20.55;;;1.50;99.90;;;;;;5054396;28;20257;-66
2022/01/27 01:36:53;;;;;;;37.95;19.95;;;1.40;99.90;;;;;;5054410;28;20204;-66
2022/01/27 01:39:19;;;;;;;41.97;19.60;;;1.30;99.90;;;;;;5053874;28;20215;-66
2022/01/27 01:41:46;;;;;;;44.25;20.30;;;1.40;99.90;;;;;;5054475;28;20199;-66
2022/01/27 01:44:15;;;;;;;40.50;19.83;;;1.40;99.90;;;;;;5054505;28;20250;-66
2022/01/27 01:46:41;;;;;;;42.65;17.75;;;1.40;99.90;;;;;;5054801;28;20209;-66
2022/01/27 01:49:08;;;;;;;40.00;19.30;;;1.40;99.90;;;;;;5054484;28;20199;-66
2022/01/27 01:51:37;;;;;;;41.75;18.42;;;1.50;99.90;;;;;;5054986;28;20213;-66
2022/01/27 01:54:04;;;;;;;34.33;18.05;;;1.60;99.90;;;;;;5054445;28;20223;-66
2022/01/27 01:56:31;;;;;;;39.10;18.65;;;1.70;99.90;;;;;;5054768;28;20199;-66
2022/01/27 01:58:59;;;;;;;36.45;18.15;;;1.70;99.90;;;;;;5054471;28;20569;-66
2022/01/27 02:01:27;;;;;;;36.83;19.10;;;1.80;99.90;;;;;;5053764;28;20653;-66
2022/01/27 02:03:54;;;;;;;34.70;17.35;;;1.70;99.90;;;;;;5053927;28;20225;-66
2022/01/27 02:06:27;;;;;;;38.72;19.48;;;1.70;99.90;;;;;;5054135;28;20210;-66
2022/01/27 02:20:01;;;;;;;38.20;17.92;;;1.60;99.90;;;;;;5053988;28;20272;-66
2022/01/27 02:22:28;;;;;;;30.33;17.05;;;1.70;99.90;;;;;;5053690;28;20295;-66
2022/01/27 02:24:55;;;;;;;32.55;18.05;;;1.80;99.90;;;;;;5053937;28;20224;-66
2022/01/27 02:27:23;;;;;;;34.55;17.73;;;1.70;99.90;;;;;;5053454;28;20210;-66
2022/01/27 02:29:50;;;;;;;30.92;17.55;;;1.70;99.90;;;;;;5053724;28;20249;-66
2022/01/27 02:32:19;;;;;;;34.90;18.27;;;1.70;99.90;;;;;;5053861;28;20210;-66
2022/01/27 02:34:46;;;;;;;35.00;17.42;;;1.70;99.90;;;;;;5053660;28;20227;-66
2022/01/27 02:37:15;;;;;;;33.97;18.30;;;1.80;99.90;;;;;;5053878;28;20200;-66
2022/01/27 02:39:42;;;;;;;36.22;18.20;;;1.80;99.90;;;;;;5053337;28;20229;-67
2022/01/27 02:42:16;;;;;;;29.65;16.70;;;1.80;99.90;;;;;;5053439;28;20206;-66
2022/01/27 02:44:56;;;;;;;34.33;17.90;;;1.70;99.90;;;;;;5053587;28;20220;-66
2022/01/27 02:47:25;;;;;;;31.73;17.63;;;1.80;99.90;;;;;;5053853;28;20214;-66
2022/01/27 02:49:52;;;;;;;34.28;18.45;;;1.80;99.90;;;;;;5054404;28;20195;-66
2022/01/27 02:52:20;;;;;;;36.20;18.15;;;1.90;99.90;;;;;;5057375;28;20294;-66
2022/01/27 02:54:47;;;;;;;36.33;18.90;;;1.90;99.90;;;;;;5056914;28;20219;-66
2022/01/27 02:57:14;;;;;;;34.65;18.05;;;1.90;99.90;;;;;;5057621;28;20206;-66
2022/01/27 02:59:41;;;;;;;34.25;17.88;;;1.90;99.90;;;;;;5056771;28;20219;-66
2022/01/27 03:02:08;;;;;;;31.77;17.50;;;1.90;99.90;;;;;;5057272;28;20204;-66
2022/01/27 03:04:35;;;;;;;31.27;16.30;;;1.90;99.90;;;;;;5057528;28;20227;-66
2022/01/27 03:07:04;;;;;;;34.78;18.50;;;1.80;99.90;;;;;;5056685;28;20214;-66
2022/01/27 03:09:33;;;;;;;32.40;17.45;;;1.80;99.90;;;;;;5057104;28;20208;-66
2022/01/27 03:12:01;;;;;;;34.78;17.48;;;1.70;99.90;;;;;;5057236;28;20203;-66
2022/01/27 03:14:29;;;;;;;32.67;16.83;;;1.60;99.90;;;;;;5057045;28;20318;-66
2022/01/27 03:16:58;;;;;;;32.58;17.38;;;1.70;99.90;;;;;;5057004;28;20207;-66
2022/01/27 03:19:25;;;;;;;33.78;18.30;;;1.60;99.90;;;;;;5057596;28;20317;-66
2022/01/27 03:21:53;;;;;;;31.33;17.63;;;1.50;99.90;;;;;;5057183;28;20210;-66
2022/01/27 03:24:20;;;;;;;38.72;19.25;;;1.40;99.90;;;;;;5057435;28;20313;-66
2022/01/27 03:26:48;;;;;;;35.83;18.65;;;1.30;99.90;;;;;;5056709;28;20203;-67
2022/01/27 03:29:16;;;;;;;34.67;18.20;;;1.20;99.90;;;;;;5056761;28;20207;-67
2022/01/27 03:31:43;;;;;;;37.97;17.83;;;1.20;99.90;;;;;;5056641;28;20207;-67
2022/01/27 03:34:10;;;;;;;35.80;18.70;;;1.30;99.90;;;;;;5056633;28;20225;-67
2022/01/27 03:36:37;;;;;;;35.65;18.40;;;1.30;99.90;;;;;;5057193;28;20207;-67
2022/01/27 03:39:04;;;;;;;32.35;17.77;;;1.30;99.90;;;;;;5056985;28;20208;-67
2022/01/27 03:41:33;;;;;;;32.70;17.38;;;1.20;99.90;;;;;;5056562;28;20553;-67
2022/01/27 03:44:01;;;;;;;32.08;17.10;;;1.30;99.90;;;;;;5056339;28;20223;-67
2022/01/27 03:46:28;;;;;;;34.80;17.15;;;1.30;99.90;;;;;;5056683;28;20215;-67
2022/01/27 03:48:55;;;;;;;31.48;17.75;;;1.40;99.90;;;;;;5056266;28;20207;-67
2022/01/27 03:51:22;;;;;;;35.63;17.50;;;1.50;99.90;;;;;;5056276;28;20656;-67
2022/01/27 03:53:49;;;;;;;36.75;16.67;;;1.50;99.90;;;;;;5056307;28;20630;-67
2022/01/27 03:56:16;;;;;;;31.58;16.90;;;1.60;99.90;;;;;;5055859;28;20669;-67
2022/01/27 03:58:43;;;;;;;30.13;16.45;;;1.50;99.90;;;;;;5056517;28;20238;-67
2022/01/27 04:01:11;;;;;;;31.27;17.00;;;1.60;99.90;;;;;;5055680;28;20334;-66
2022/01/27 04:03:38;;;;;;;31.48;17.80;;;1.60;99.90;;;;;;5056145;28;20224;-66
2022/01/27 04:06:08;;;;;;;26.80;16.02;;;1.70;99.90;;;;;;5056240;28;20234;-66
2022/01/27 04:08:37;;;;;;;34.50;17.58;;;1.80;99.90;;;;;;5055782;28;20199;-66
2022/01/27 04:11:04;;;;;;;32.22;16.38;;;1.70;99.90;;;;;;5055711;28;20195;-66
2022/01/27 04:13:31;;;;;;;28.17;16.27;;;1.60;99.90;;;;;;5055832;28;20230;-66
2022/01/27 04:15:58;;;;;;;34.75;17.77;;;1.50;99.90;;;;;;5056501;28;20290;-66
2022/01/27 04:18:27;;;;;;;31.25;16.80;;;1.30;99.90;;;;;;5055682;28;20585;-66
2022/01/27 04:20:54;;;;;;;29.50;16.23;;;1.30;99.90;;;;;;5055895;28;20219;-66
2022/01/27 04:23:21;;;;;;;32.83;16.63;;;1.40;99.90;;;;;;5056144;28;20547;-66
2022/01/27 04:25:48;;;;;;;32.67;16.77;;;1.40;99.90;;;;;;5056014;28;20203;-66
2022/01/27 04:28:21;;;;;;;31.45;16.52;;;1.40;99.90;;;;;;5055756;28;20764;-66
2022/01/27 04:30:48;;;;;;;32.03;17.58;;;1.50;99.90;;;;;;5055738;28;20203;-66
2022/01/27 04:33:17;;;;;;;34.25;17.85;;;1.60;99.90;;;;;;5055814;28;20199;-66
2022/01/27 04:35:48;;;;;;;30.20;17.10;;;1.60;99.90;;;;;;5055566;28;20674;-66
2022/01/27 04:38:30;;;;;;;30.48;16.00;;;1.60;99.90;;;;;;5055622;28;20245;-66
2022/01/27 04:41:05;;;;;;;29.83;16.20;;;1.70;99.90;;;;;;5054901;28;20269;-66
2022/01/27 04:43:38;;;;;;;31.25;16.63;;;1.90;99.90;;;;;;5055854;28;20222;-66
2022/01/27 04:46:15;;;;;;;32.60;18.90;;;2.00;99.90;;;;;;5055320;28;20527;-66
2022/01/27 04:48:46;;;;;;;34.00;17.38;;;2.00;99.90;;;;;;5055318;28;20695;-66
2022/01/27 04:51:18;;;;;;;35.47;17.92;;;1.90;99.90;;;;;;5055560;28;20221;-66
2022/01/27 04:53:50;;;;;;;34.78;18.55;;;1.70;99.90;;;;;;5055474;28;20227;-66
2022/01/27 04:56:18;;;;;;;35.45;17.70;;;1.70;99.90;;;;;;5054966;28;20539;-66
2022/01/27 04:58:48;;;;;;;31.42;17.38;;;1.60;99.90;;;;;;5054918;28;20654;-66
2022/01/27 05:01:17;;;;;;;32.53;18.85;;;1.60;99.90;;;;;;5055285;28;20219;-66
2022/01/27 05:03:47;;;;;;;31.42;16.92;;;1.60;99.90;;;;;;5054831;28;20234;-66
2022/01/27 05:06:16;;;;;;;32.88;16.90;;;1.70;99.90;;;;;;5054881;28;20191;-66
2022/01/27 05:08:43;;;;;;;34.35;18.30;;;1.70;99.90;;;;;;5055350;28;20207;-66
2022/01/27 05:11:15;;;;;;;35.72;17.92;;;1.60;99.90;;;;;;5054424;28;20707;-66
2022/01/27 05:13:51;;;;;;;32.78;17.25;;;1.60;99.90;;;;;;5053854;28;20241;-66
2022/01/27 05:16:17;;;;;;;33.40;17.17;;;1.60;99.90;;;;;;5055101;28;20294;-66
2022/01/27 05:18:45;;;;;;;30.08;17.70;;;1.80;99.90;;;;;;5054455;28;20211;-66
2022/01/27 05:21:12;;;;;;;31.02;17.08;;;1.70;99.90;;;;;;5054536;28;20318;-66
2022/01/27 05:23:40;;;;;;;29.48;16.63;;;1.80;99.90;;;;;;5054150;28;20259;-66
2022/01/27 05:26:07;;;;;;;35.17;18.05;;;1.90;99.90;;;;;;5054987;28;20214;-66
2022/01/27 05:28:34;;;;;;;29.58;17.05;;;2.00;99.90;;;;;;5054641;28;20207;-66
2022/01/27 05:31:01;;;;;;;31.42;18.50;;;1.90;99.90;;;;;;5054448;28;20203;-66
2022/01/27 05:33:28;;;;;;;35.03;18.13;;;2.00;99.90;;;;;;5054232;28;20210;-66
2022/01/27 05:35:55;;;;;;;32.20;17.05;;;2.10;99.90;;;;;;5054454;28;20200;-66
2022/01/27 05:38:21;;;;;;;31.35;17.45;;;2.10;99.90;;;;;;5054501;28;20213;-66
2022/01/27 05:40:50;;;;;;;30.20;16.85;;;2.10;99.90;;;;;;5054186;28;20224;-66
2022/01/27 05:43:17;;;;;;;33.15;17.52;;;2.10;99.90;;;;;;5054305;28;20207;-66
2022/01/27 05:45:44;;;;;;;34.67;19.15;;;2.00;99.90;;;;;;5054740;28;20203;-66
2022/01/27 05:48:11;;;;;;;31.98;17.58;;;2.00;99.90;;;;;;5054348;28;20203;-66
2022/01/27 05:50:38;;;;;;;32.60;18.30;;;2.20;99.90;;;;;;5054246;28;20196;-66
2022/01/27 05:53:05;;;;;;;35.13;18.90;;;2.30;99.90;;;;;;5054274;28;20207;-66
2022/01/27 05:55:32;;;;;;;34.75;18.60;;;2.30;99.90;;;;;;5054532;28;20226;-66
2022/01/27 05:58:00;;;;;;;32.17;17.70;;;2.30;99.90;;;;;;5054777;28;20206;-66
2022/01/27 06:00:28;;;;;;;31.08;17.63;;;2.20;99.90;;;;;;5054295;28;20223;-66
2022/01/27 06:02:55;;;;;;;32.97;18.25;;;2.00;99.90;;;;;;5054522;28;20207;-66
2022/01/27 06:05:22;;;;;;;33.72;17.42;;;1.80;99.90;;;;;;5054421;28;20223;-66
2022/01/27 06:07:49;;;;;;;33.05;18.88;;;1.80;99.90;;;;;;5054861;28;20294;-66
2022/01/27 06:10:16;;;;;;;31.90;19.98;;;1.90;99.90;;;;;;5054144;28;20203;-66
2022/01/27 06:12:48;;;;;;;36.70;18.40;;;2.00;99.90;;;;;;5053735;28;20203;-66
2022/01/27 06:15:16;;;;;;;36.88;20.30;;;1.90;99.90;;;;;;5054157;28;20577;-66
2022/01/27 06:17:43;;;;;;;36.38;20.13;;;2.00;99.90;;;;;;5054178;28;20218;-66
2022/01/27 06:20:11;;;;;;;35.60;18.75;;;2.00;99.90;;;;;;5054180;28;20656;-66
2022/01/27 06:22:38;;;;;;;34.67;18.25;;;1.90;99.90;;;;;;5054098;28;20748;-66
2022/01/27 06:25:06;;;;;;;36.10;19.35;;;1.90;99.90;;;;;;5055486;28;20219;-66
2022/01/27 06:27:33;;;;;;;35.78;19.50;;;2.00;99.90;;;;;;5058435;28;20214;-66
2022/01/27 06:30:00;;;;;;;32.95;18.58;;;1.80;99.90;;;;;;5057480;28;20199;-66
2022/01/27 06:32:28;;;;;;;34.90;19.40;;;1.70;99.90;;;;;;5057866;28;20203;-66
2022/01/27 06:34:55;;;;;;;30.35;16.73;;;1.60;99.90;;;;;;5058204;28;20251;-66
2022/01/27 06:37:21;;;;;;;31.20;17.17;;;1.60;99.90;;;;;;5057941;28;20204;-66
2022/01/27 06:39:48;;;;;;;28.83;17.15;;;1.80;99.90;;;;;;5059893;28;20281;-66
2022/01/27 06:42:15;;;;;;;22.60;13.15;;;1.80;99.90;;;;;;5072318;28;20229;-66
2022/01/27 06:44:42;;;;;;;31.02;16.95;;;1.90;99.90;;;;;;5076307;28;20229;-66
2022/01/27 06:47:09;;;;;;;33.40;17.85;;;1.90;99.90;;;;;;5076425;28;20298;-66
2022/01/27 06:49:37;;;;;;;33.13;18.38;;;2.00;99.90;;;;;;5076463;28;20224;-66
2022/01/27 06:52:05;;;;;;;33.40;18.08;;;2.00;99.90;;;;;;5075705;28;20290;-66
2022/01/27 06:54:32;;;;;;;30.88;17.80;;;2.10;99.90;;;;;;5075932;28;20227;-66
2022/01/27 06:57:00;;;;;;;30.95;17.60;;;2.10;99.90;;;;;;5076295;28;20198;-66
2022/01/27 06:59:27;;;;;;;33.38;18.23;;;2.10;99.90;;;;;;5076011;28;20238;-66
2022/01/27 07:01:54;;;;;;;30.63;15.10;;;1.90;99.90;;;;;;5075714;28;20218;-66
2022/01/27 07:04:21;;;;;;;28.30;15.73;;;1.90;99.90;;;;;;5075991;28;20305;-66
2022/01/27 07:06:51;;;;;;;26.58;15.95;;;1.90;99.90;;;;;;5076330;28;20206;-66
2022/01/27 07:09:18;;;;;;;33.20;17.25;;;1.90;99.90;;;;;;5076337;28;20254;-66
2022/01/27 07:11:45;;;;;;;34.83;17.25;;;1.90;99.90;;;;;;5075451;28;20986;-66
2022/01/27 07:14:12;;;;;;;31.90;17.52;;;2.00;99.90;;;;;;5075731;28;20356;-66
2022/01/27 07:16:39;;;;;;;29.95;17.90;;;2.10;99.90;;;;;;5076083;28;20289;-66
2022/01/27 07:19:06;;;;;;;40.50;22.83;;;2.10;99.90;;;;;;5075471;28;20207;-66
2022/01/27 07:21:33;;;;;;;27.70;15.90;;;2.10;99.90;;;;;;5074755;28;20219;-66
2022/01/27 07:24:01;;;;;;;31.92;15.80;;;2.10;99.90;;;;;;5075149;28;20222;-67
2022/01/27 07:26:28;;;;;;;33.33;16.70;;;2.10;99.90;;;;;;5075092;28;20209;-68
2022/01/27 07:28:56;;;;;;;28.55;16.08;;;2.00;99.90;;;;;;5074960;28;20203;-68
2022/01/27 07:31:23;;;;;;;29.02;15.85;;;1.80;99.90;;;;;;5074784;28;20234;-68
2022/01/27 07:33:52;;;;;;;27.17;14.63;;;1.80;99.90;;;;;;5076297;28;20756;-67
2022/01/27 07:36:19;;;;;;;30.38;16.77;;;1.70;99.90;;;;;;5075479;28;20736;-67
2022/01/27 07:38:47;;;;;;;32.92;18.60;;;1.80;99.90;;;;;;5076199;28;20202;-67
2022/01/27 07:41:16;;;;;;;30.17;16.88;;;1.90;99.90;;;;;;5076077;28;20229;-67
2022/01/27 07:43:43;;;;;;;30.75;16.27;;;1.90;99.90;;;;;;5076407;28;20313;-67
2022/01/27 07:46:11;;;;;;;29.73;17.33;;;2.00;99.90;;;;;;5076499;28;20285;-67
2022/01/27 07:48:38;;;;;;;36.03;19.45;;;2.00;99.90;;;;;;5076218;28;20206;-67
2022/01/27 07:51:07;;;;;;;37.88;21.05;;;2.00;99.90;;;;;;5075467;28;20649;-67
2022/01/27 07:53:34;;;;;;;35.10;18.60;;;1.40;99.90;;;;;;5075673;28;20219;-67
2022/01/27 07:56:02;;;;;;;36.58;18.88;;;1.00;99.90;;;;;;5076164;28;20736;-67
2022/01/27 07:58:30;;;;;;;36.40;19.02;;;1.00;99.90;;;;;;5076140;28;20290;-67
2022/01/27 08:00:57;;;;;;;23.70;12.55;;;1.00;99.90;;;;;;5075416;28;20227;-67
2022/01/27 08:03:23;;;;;;;36.95;19.83;;;1.10;99.90;;;;;;5076116;28;20198;-68
2022/01/27 08:05:51;;;;;;;37.03;19.35;;;1.10;99.90;;;;;;5075889;28;20305;-68
2022/01/27 08:08:18;;;;;;;35.97;18.45;;;1.10;99.90;;;;;;5075644;28;20210;-68
2022/01/27 08:10:45;;;;;;;32.03;18.85;;;1.10;99.90;;;;;;5075434;28;20203;-68
2022/01/27 08:13:12;;;;;;;34.85;17.58;;;1.20;99.90;;;;;;5075713;28;20207;-68
2022/01/27 08:15:40;;;;;;;33.22;17.33;;;1.30;99.90;;;;;;5076092;28;20237;-68
2022/01/27 08:18:07;;;;;;;29.70;16.98;;;1.30;99.90;;;;;;5075491;28;20214;-68
2022/01/27 08:20:34;;;;;;;35.90;17.85;;;1.20;99.90;;;;;;5075430;28;20202;-68
2022/01/27 08:23:01;;;;;;;32.17;17.35;;;1.20;99.90;;;;;;5075548;28;20203;-68
2022/01/27 08:25:28;;;;;;;34.65;18.55;;;1.10;99.90;;;;;;5075627;28;20222;-68
2022/01/27 08:27:58;;;;;;;38.63;19.40;;;1.20;99.90;;;;;;5075418;28;20206;-68
2022/01/27 08:30:28;;;;;;;34.35;17.38;;;1.10;99.90;;;;;;5075204;28;20214;-68
2022/01/27 08:33:04;;;;;;;35.40;18.67;;;1.10;99.90;;;;;;5075102;28;20598;-68
2022/01/27 08:35:31;;;;;;;34.75;18.75;;;0.80;99.90;;;;;;5076007;28;20230;-68
2022/01/27 08:37:58;;;;;;;36.42;18.38;;;0.80;99.90;;;;;;5075162;28;20297;-68
2022/01/27 08:40:25;;;;;;;35.22;16.77;;;0.90;99.90;;;;;;5075143;28;20202;-67
2022/01/27 08:42:52;;;;;;;33.05;17.33;;;1.00;99.90;;;;;;5075274;28;20218;-67
2022/01/27 08:45:21;;;;;;;34.20;18.20;;;1.00;99.90;;;;;;5074477;28;20257;-67
2022/01/27 08:47:49;;;;;;;33.97;17.65;;;1.10;99.90;;;;;;5074794;28;20207;-68
2022/01/27 08:50:19;;;;;;;27.67;14.80;;;1.10;99.90;;;;;;5074274;28;20252;-67
2022/01/27 08:52:46;;;;;;;28.27;15.20;;;1.10;99.90;;;;;;5074919;28;20210;-68
2022/01/27 08:55:13;;;;;;;38.75;17.85;;;1.10;99.90;;;;;;5075314;28;20233;-68
2022/01/27 08:57:40;;;;;;;31.52;17.08;;;1.10;99.90;;;;;;5075006;28;20203;-68
2022/01/27 09:00:09;;;;;;;36.95;16.42;;;1.10;99.90;;;;;;5074018;28;20209;-68
2022/01/27 09:02:36;;;;;;;29.90;14.65;;;1.20;99.90;;;;;;5074360;28;20309;-67
2022/01/27 09:05:04;;;;;;;29.48;13.50;;;1.20;99.90;;;;;;5075015;28;20226;-68
2022/01/27 09:07:34;;;;;;;34.42;16.02;;;1.30;99.90;;;;;;5074750;28;20218;-68
2022/01/27 09:10:00;;;;;;;38.55;16.88;;;1.40;99.90;;;;;;5074424;28;20203;-67
2022/01/27 09:12:27;;;;;;;33.55;17.27;;;1.50;99.90;;;;;;5074418;28;20198;-68
2022/01/27 09:14:54;;;;;;;34.00;17.40;;;1.60;99.90;;;;;;5074322;28;20333;-67
2022/01/27 09:17:25;;;;;;;35.97;17.42;;;1.60;99.90;;;;;;5074471;28;20221;-68
2022/01/27 09:19:52;;;;;;;39.47;17.38;;;1.60;99.90;;;;;;5073887;28;20726;-67
2022/01/27 09:22:19;;;;;;;31.05;16.65;;;1.70;99.90;;;;;;5074460;28;20741;-68
2022/01/27 09:24:53;;;;;;;27.50;15.75;;;1.80;99.90;;;;;;5073984;28;20297;-68
2022/01/27 09:27:21;;;;;;;26.73;13.70;;;1.80;99.90;;;;;;5074511;28;20209;-68
2022/01/27 09:29:48;;;;;;;32.95;17.00;;;1.80;99.90;;;;;;5074095;28;20232;-68
2022/01/27 09:32:16;;;;;;;24.40;14.57;;;1.80;99.90;;;;;;5074193;28;20207;-67
2022/01/27 09:34:43;;;;;;;21.60;12.27;;;2.00;99.90;;;;;;5073734;28;20280;-67
2022/01/27 09:37:10;;;;;;;24.25;12.80;;;2.10;99.90;;;;;;5074675;28;20202;-68
2022/01/27 09:39:37;;;;;;;23.90;11.85;;;2.20;99.90;;;;;;5073823;28;20209;-68
2022/01/27 09:42:07;;;;;;;16.65;9.50;;;2.30;99.90;;;;;;5073889;28;20223;-67
2022/01/27 09:44:36;;;;;;;13.98;8.65;;;2.40;99.90;;;;;;5074808;28;20309;-68
2022/01/27 09:47:06;;;;;;;15.57;8.23;;;2.40;99.90;;;;;;5074409;28;20202;-67
2022/01/27 09:49:37;;;;;;;16.67;8.70;;;2.50;99.90;;;;;;5074392;28;20213;-67
2022/01/27 09:52:05;;;;;;;12.80;7.70;;;2.60;99.90;;;;;;5074400;28;20203;-67
2022/01/27 09:54:32;;;;;;;15.55;8.10;;;2.60;99.90;;;;;;5073977;28;20250;-68
2022/01/27 09:56:59;;;;;;;13.15;8.45;;;2.60;99.90;;;;;;5074546;28;20203;-67
2022/01/27 09:59:28;;;;;;;17.65;9.48;;;2.60;99.90;;;;;;5074154;28;20203;-67
2022/01/27 10:01:58;;;;;;;13.88;8.55;;;2.70;99.90;;;;;;5077772;28;20696;-67
2022/01/27 10:04:41;;;;;;;13.45;8.45;;;2.60;99.90;;;;;;5078140;28;20219;-68
2022/01/27 10:07:08;;;;;;;15.07;9.15;;;2.60;99.90;;;;;;5077911;28;20206;-68
2022/01/27 10:09:35;;;;;;;17.00;9.65;;;2.60;99.90;;;;;;5078034;28;20203;-67
2022/01/27 10:12:03;;;;;;;15.52;7.78;;;2.70;99.90;;;;;;5077741;28;20252;-67
2022/01/27 10:14:36;;;;;;;14.95;8.50;;;2.70;99.90;;;;;;5077997;28;20329;-68
2022/01/27 10:17:07;;;;;;;17.85;8.63;;;2.80;99.90;;;;;;5077808;28;20286;-68
2022/01/27 10:19:35;;;;;;;17.58;8.90;;;2.80;99.90;;;;;;5077652;28;20209;-67
2022/01/27 10:22:04;;;;;;;21.25;9.32;;;2.90;99.90;;;;;;5077581;28;20225;-68
2022/01/27 10:24:32;;;;;;;13.50;9.25;;;3.00;99.90;;;;;;5077222;28;20225;-67
2022/01/27 10:27:21;;;;;;;17.02;10.63;;;3.00;99.90;;;;;;5078083;28;20203;-68
2022/01/27 10:32:41;;;;;;;17.73;10.25;;;3.10;99.90;;;;;;5074580;28;20201;-67
2022/01/27 10:35:09;;;;;;;16.67;9.57;;;3.10;99.90;;;;;;5077049;28;20596;-68
2022/01/27 10:37:57;;;;;;;14.10;7.82;;;3.20;99.90;;;;;;5077519;28;20289;-68
2022/01/27 10:40:28;;;;;;;13.70;9.18;;;3.20;99.90;;;;;;5076862;28;20213;-68
2022/01/27 10:43:04;;;;;;;15.55;10.57;;;3.30;99.90;;;;;;5076754;28;20673;-68
2022/01/27 10:45:32;;;;;;;14.43;8.75;;;3.30;99.90;;;;;;5077560;28;20572;-68
2022/01/27 10:48:17;;;;;;;17.90;9.40;;;3.30;99.90;;;;;;5077385;28;20215;-67
2022/01/27 10:50:57;;;;;;;16.60;9.55;;;3.30;99.90;;;;;;5076808;28;20209;-67
2022/01/27 10:53:43;;;;;;;13.75;8.38;;;3.30;99.90;;;;;;5076935;28;20203;-68
2022/01/27 10:56:15;;;;;;;14.95;8.02;;;3.30;99.90;;;;;;5077253;28;20190;-68
2022/01/27 10:58:43;;;;;;;18.40;8.75;;;3.40;99.90;;;;;;5077241;28;20207;-68
2022/01/27 11:01:12;;;;;;;17.17;8.77;;;3.40;99.90;;;;;;5076729;28;20207;-68
2022/01/27 11:03:39;;;;;;;12.52;8.00;;;3.40;99.90;;;;;;5076664;28;20226;-67
2022/01/27 11:06:09;;;;;;;15.93;7.50;;;3.50;99.90;;;;;;5077151;28;20568;-68
2022/01/27 11:08:39;;;;;;;12.23;8.38;;;3.60;99.90;;;;;;5077085;28;20206;-68
2022/01/27 11:11:06;;;;;;;12.80;7.85;;;3.70;99.90;;;;;;5076331;28;20199;-68
2022/01/27 11:13:35;;;;;;;13.50;8.27;;;3.70;99.90;;;;;;5076408;28;20244;-67
2022/01/27 11:16:03;;;;;;;12.07;7.13;;;3.80;99.90;;;;;;5076503;28;20297;-68
2022/01/27 11:18:32;;;;;;;11.93;6.80;;;3.90;99.90;;;;;;5076435;28;20306;-67
2022/01/27 11:21:04;;;;;;;9.77;6.85;;;4.00;99.90;;;;;;5076055;28;20202;-67
2022/01/27 11:26:23;;;;;;;12.43;7.20;;;4.00;99.90;;;;;;5076474;28;20698;-68
2022/01/27 11:28:52;;;;;;;13.77;7.97;;;4.00;99.90;;;;;;5076459;28;20203;-67
2022/01/27 11:31:40;;;;;;;14.20;8.07;;;4.10;99.90;;;;;;5076644;28;20214;-68
2022/01/27 11:34:10;;;;;;;14.32;8.60;;;4.10;99.90;;;;;;5076281;28;20226;-68
2022/01/27 11:36:38;;;;;;;14.02;7.95;;;4.10;99.90;;;;;;5076133;28;20211;-68
2022/01/27 11:39:10;;;;;;;12.73;8.20;;;4.10;99.90;;;;;;5076209;28;20249;-67
2022/01/27 11:41:40;;;;;;;18.67;11.50;;;4.10;99.90;;;;;;5076030;28;20203;-68
2022/01/27 11:44:25;;;;;;;17.42;9.05;;;4.10;99.90;;;;;;5076276;28;20222;-68
2022/01/27 11:47:18;;;;;;;12.85;8.13;;;4.10;99.90;;;;;;5076253;28;20202;-68
2022/01/27 11:50:07;;;;;;;17.65;9.45;;;4.20;99.90;;;;;;5075823;28;20209;-67
2022/01/27 11:52:47;;;;;;;17.98;9.73;;;4.10;99.90;;;;;;5076437;28;20199;-68
2022/01/27 11:55:44;;;;;;;16.80;9.68;;;4.20;99.90;;;;;;5075383;28;20284;-68
2022/01/27 11:58:20;;;;;;;17.13;10.90;;;4.20;99.90;;;;;;5076158;28;20202;-67
2022/01/27 12:01:11;;;;;;;13.73;9.38;;;4.20;99.90;;;;;;5075500;28;20304;-68
2022/01/27 12:03:38;;;;;;;17.00;10.30;;;4.20;99.90;;;;;;5075381;28;20230;-68
2022/01/27 12:06:21;;;;;;;17.95;10.95;;;4.20;99.90;;;;;;5075897;28;20209;-67
2022/01/27 12:08:48;;;;;;;15.95;10.05;;;4.30;99.90;;;;;;5076188;28;20207;-68
2022/01/27 12:11:48;;;;;;;17.90;10.27;;;4.30;99.90;;;;;;5075301;28;20198;-68
2022/01/27 12:14:17;;;;;;;17.95;10.25;;;4.30;99.90;;;;;;5075649;28;20679;-67
2022/01/27 12:16:56;;;;;;;15.45;9.90;;;4.40;99.90;;;;;;5075601;28;20290;-68
2022/01/27 12:19:23;;;;;;;17.35;10.38;;;4.40;99.90;;;;;;5075608;28;20206;-67
2022/01/27 12:22:03;;;;;;;16.73;9.95;;;4.40;99.90;;;;;;5075001;28;20205;-67
2022/01/27 12:24:32;;;;;;;16.38;10.13;;;4.50;99.90;;;;;;5075184;28;20269;-68
2022/01/27 12:27:01;;;;;;;16.27;9.95;;;4.50;99.90;;;;;;5075124;28;20203;-67
2022/01/27 12:29:33;;;;;;;17.60;10.77;;;4.50;99.90;;;;;;5075605;28;20570;-67
2022/01/27 12:32:02;;;;;;;16.15;9.75;;;4.60;99.90;;;;;;5075487;28;20306;-68
2022/01/27 12:34:29;;;;;;;18.38;11.02;;;4.70;99.90;;;;;;5075618;28;20223;-68
2022/01/27 12:37:00;;;;;;;17.00;11.02;;;4.70;99.90;;;;;;5074993;28;20202;-67
2022/01/27 12:39:29;;;;;;;16.95;10.32;;;4.70;99.90;;;;;;5075534;28;20225;-68
2022/01/27 12:41:55;;;;;;;16.25;9.90;;;4.70;99.90;;;;;;5074731;28;20213;-67
2022/01/27 12:44:25;;;;;;;17.55;10.02;;;4.80;99.90;;;;;;5075373;28;20227;-67
2022/01/27 12:47:06;;;;;;;16.08;10.85;;;4.80;99.90;;;;;;5075443;28;20210;-68
2022/01/27 12:49:40;;;;;;;16.30;10.85;;;4.80;99.90;;;;;;5074847;28;20225;-68
2022/01/27 12:52:10;;;;;;;17.52;10.88;;;4.80;99.90;;;;;;5075041;28;20210;-68
2022/01/27 12:54:38;;;;;;;16.80;11.15;;;4.70;99.90;;;;;;5074197;28;20700;-67
2022/01/27 12:57:06;;;;;;;18.77;11.10;;;4.80;99.90;;;;;;5075043;28;20297;-68
2022/01/27 12:59:35;;;;;;;18.40;11.60;;;4.80;99.90;;;;;;5074835;28;20207;-68
2022/01/27 13:02:05;;;;;;;16.17;10.38;;;4.90;99.90;;;;;;5074297;28;20207;-68
2022/01/27 13:04:32;;;;;;;17.75;11.30;;;4.90;99.90;;;;;;5074677;28;20579;-68
2022/01/27 13:06:59;;;;;;;15.90;11.02;;;4.90;99.90;;;;;;5074645;28;20207;-68
2022/01/27 13:09:29;;;;;;;18.73;10.70;;;4.90;99.90;;;;;;5074847;28;20535;-68
2022/01/27 13:11:58;;;;;;;16.73;10.65;;;4.90;99.90;;;;;;5074585;28;20202;-67
2022/01/27 13:14:26;;;;;;;17.63;10.70;;;5.00;99.90;;;;;;5074470;28;20226;-68
2022/01/27 13:16:57;;;;;;;17.40;10.30;;;4.90;99.90;;;;;;5074119;28;20641;-68
2022/01/27 13:19:41;;;;;;;15.57;9.90;;;4.90;99.90;;;;;;5074680;28;20207;-67
2022/01/27 13:22:14;;;;;;;16.00;10.20;;;5.00;99.90;;;;;;5074468;28;20660;-68